Time;durP1;ratioP1;P1;durP2;ratioP2;P2;SDS_P1;SDS_P2;PMS_P1;PMS_P2;Temp;Humidity;BMP_temperature;BMP_pressure;BME280_temperature;BME280_humidity;BME280_pressure;Samples;Min_cycle;Max_cycle;Signal;HPM_P1;HPM_P2
2022/05/26 00:00:27;;;;;;;5.65;2.05;;;16.10;81.10;;;;;;5017227;28;20038;-54
2022/05/26 00:02:53;;;;;;;4.15;2.08;;;16.00;81.30;;;;;;5015596;28;20048;-53
2022/05/26 00:05:18;;;;;;;6.32;2.08;;;16.10;81.10;;;;;;4997447;28;20416;-54
2022/05/26 00:07:44;;;;;;;4.03;2.25;;;16.00;81.50;;;;;;5014658;28;20486;-53
2022/05/26 00:10:10;;;;;;;2.72;1.77;;;16.00;81.80;;;;;;5015660;28;20390;-55
2022/05/26 00:12:36;;;;;;;3.33;2.00;;;16.00;81.60;;;;;;5015590;28;20084;-48
2022/05/26 00:15:02;;;;;;;2.30;1.95;;;16.00;81.50;;;;;;5015012;28;20038;-56
2022/05/26 00:17:28;;;;;;;3.17;2.15;;;16.00;81.40;;;;;;5014078;28;20030;-55
2022/05/26 00:19:54;;;;;;;5.90;2.30;;;16.00;81.70;;;;;;5014738;28;20531;-54
2022/05/26 00:22:20;;;;;;;7.57;2.30;;;16.00;81.80;;;;;;5015964;28;20034;-49
2022/05/26 00:24:46;;;;;;;3.63;1.90;;;16.00;82.00;;;;;;5015866;28;20089;-54
2022/05/26 00:27:12;;;;;;;5.00;2.40;;;16.00;82.30;;;;;;5013983;28;20041;-52
2022/05/26 00:29:38;;;;;;;4.13;2.30;;;16.00;82.60;;;;;;5014609;28;20042;-53
2022/05/26 00:32:04;;;;;;;3.80;2.20;;;15.90;82.60;;;;;;5014502;28;20038;-55
2022/05/26 00:34:30;;;;;;;5.57;2.20;;;15.90;82.40;;;;;;4997005;28;20412;-54
2022/05/26 00:36:55;;;;;;;2.58;1.88;;;16.00;82.20;;;;;;5014466;28;20129;-56
2022/05/26 00:39:24;;;;;;;3.20;1.95;;;16.00;82.20;;;;;;5014948;28;20034;-53
2022/05/26 00:41:53;;;;;;;3.47;1.98;;;16.10;81.80;;;;;;5015272;28;20494;-55
2022/05/26 00:44:19;;;;;;;5.90;2.83;;;16.10;81.70;;;;;;5003608;28;20551;-57
2022/05/26 00:46:57;;;;;;;3.17;2.30;;;16.10;81.30;;;;;;5014960;28;20030;-54
2022/05/26 00:49:40;;;;;;;5.50;2.38;;;16.20;81.60;;;;;;5015808;28;20126;-55
2022/05/26 00:52:10;;;;;;;3.30;2.22;;;16.10;81.70;;;;;;5014697;28;20025;-56
2022/05/26 00:54:37;;;;;;;4.00;2.40;;;16.20;81.70;;;;;;5014672;28;20088;-55
2022/05/26 00:57:08;;;;;;;2.97;2.15;;;16.10;81.80;;;;;;5014767;28;20026;-51
2022/05/26 00:59:54;;;;;;;10.05;2.67;;;16.10;81.80;;;;;;5014853;28;20038;-52
2022/05/26 01:02:25;;;;;;;5.10;2.63;;;16.10;82.00;;;;;;5015565;28;20034;-58
2022/05/26 01:04:55;;;;;;;4.32;2.63;;;16.20;81.70;;;;;;5015588;28;20025;-52
2022/05/26 01:07:25;;;;;;;3.83;2.20;;;16.20;81.50;;;;;;4996296;28;20040;-53
2022/05/26 01:09:51;;;;;;;3.65;2.40;;;16.20;81.80;;;;;;5014853;28;20037;-48
2022/05/26 01:12:18;;;;;;;4.53;2.13;;;16.20;82.20;;;;;;5015579;28;20030;-51
2022/05/26 01:14:49;;;;;;;2.90;2.00;;;16.20;82.30;;;;;;5015673;28;20037;-53
2022/05/26 01:17:56;;;;;;;3.80;2.50;;;16.10;82.20;;;;;;5007533;28;20029;-50
2022/05/26 01:20:39;;;;;;;2.92;2.00;;;16.20;82.40;;;;;;5015619;28;20026;-49
2022/05/26 01:23:28;;;;;;;3.78;2.20;;;16.20;82.60;;;;;;4997480;28;20034;-55
2022/05/26 01:26:18;;;;;;;3.40;2.35;;;16.10;82.70;;;;;;5013509;28;20089;-51
2022/05/26 01:29:08;;;;;;;3.22;2.17;;;16.10;82.80;;;;;;5013296;28;20164;-51
2022/05/26 01:31:55;;;;;;;4.13;1.90;;;16.20;82.90;;;;;;5014348;28;20532;-54
2022/05/26 01:34:52;;;;;;;6.47;2.22;;;16.20;82.80;;;;;;5014202;28;20137;-55
2022/05/26 01:37:43;;;;;;;3.97;2.10;;;16.20;82.80;;;;;;5013681;28;20054;-53
2022/05/26 01:40:28;;;;;;;4.50;2.50;;;16.30;82.80;;;;;;4995464;28;20030;-50
2022/05/26 01:43:05;;;;;;;;;;;16.30;82.80;;;;;;5014429;28;20450;-52
2022/05/26 01:45:45;;;;;;;3.10;2.05;;;16.30;82.60;;;;;;5012692;28;19971;-53
2022/05/26 01:48:33;;;;;;;3.38;2.38;;;16.20;82.70;;;;;;5013839;28;20037;-52
2022/05/26 01:51:18;;;;;;;4.32;2.30;;;16.20;83.20;;;;;;5013962;28;20417;-50
2022/05/26 01:54:14;;;;;;;3.97;2.40;;;16.20;83.30;;;;;;5013119;28;20064;-52
2022/05/26 01:56:55;;;;;;;3.80;2.08;;;16.10;83.40;;;;;;5012006;28;20045;-56
2022/05/26 01:59:35;;;;;;;3.45;2.42;;;16.00;83.90;;;;;;5013823;28;20033;-54
2022/05/26 02:02:05;;;;;;;3.15;2.03;;;16.10;83.80;;;;;;5013682;28;20030;-52
2022/05/26 02:04:46;;;;;;;2.30;2.10;;;16.20;83.10;;;;;;5014330;28;20065;-52
2022/05/26 02:07:25;;;;;;;7.32;2.45;;;16.10;83.20;;;;;;5013110;28;20033;-52
2022/05/26 02:09:54;;;;;;;6.72;2.65;;;16.20;83.10;;;;;;5014379;28;20061;-48
2022/05/26 02:12:29;;;;;;;4.40;2.25;;;16.30;83.10;;;;;;5013465;28;20025;-53
2022/05/26 02:14:59;;;;;;;2.65;2.22;;;16.30;83.00;;;;;;5014508;28;20026;-55
2022/05/26 02:17:34;;;;;;;2.88;2.20;;;16.30;82.90;;;;;;5012981;28;20088;-55
2022/05/26 02:20:07;;;;;;;3.88;2.45;;;16.40;82.80;;;;;;5013150;28;20164;-53
2022/05/26 02:22:42;;;;;;;4.82;2.45;;;16.40;82.70;;;;;;5013007;28;20117;-55
2022/05/26 02:25:18;;;;;;;4.70;2.50;;;16.40;82.70;;;;;;5011856;28;20029;-52
2022/05/26 02:27:46;;;;;;;4.10;2.45;;;16.50;82.50;;;;;;5011816;28;20030;-55
2022/05/26 02:30:12;;;;;;;2.42;2.10;;;16.50;82.40;;;;;;5011842;28;20038;-52
2022/05/26 02:32:45;;;;;;;3.20;2.38;;;16.50;82.50;;;;;;5012792;28;20040;-50
2022/05/26 02:35:20;;;;;;;3.67;2.08;;;16.60;82.40;;;;;;5011616;28;20038;-52
2022/05/26 02:37:54;;;;;;;5.38;2.00;;;16.50;82.30;;;;;;5011779;28;20377;-53
2022/05/26 02:40:20;;;;;;;3.58;2.10;;;16.40;82.40;;;;;;5013752;28;20493;-50
2022/05/26 02:42:53;;;;;;;5.35;2.60;;;16.40;82.70;;;;;;5016449;28;20079;-54
2022/05/26 02:45:55;;;;;;;3.22;2.22;;;16.40;82.70;;;;;;5016141;28;20545;-51
2022/05/26 02:48:45;;;;;;;6.32;2.60;;;16.40;82.80;;;;;;5015237;28;20030;-52
2022/05/26 02:51:28;;;;;;;2.70;2.13;;;16.40;82.80;;;;;;5014251;28;20124;-50
2022/05/26 02:54:20;;;;;;;3.75;2.17;;;16.40;82.70;;;;;;5012646;28;20466;-53
2022/05/26 02:56:48;;;;;;;3.13;2.00;;;16.40;82.90;;;;;;5016684;28;20052;-55
2022/05/26 02:59:31;;;;;;;2.90;2.30;;;16.40;83.00;;;;;;5023007;28;20026;-50
2022/05/26 03:02:01;;;;;;;7.25;2.17;;;16.30;83.30;;;;;;5020701;28;20034;-53
2022/05/26 03:04:39;;;;;;;2.72;2.20;;;16.20;83.40;;;;;;5017543;28;20041;-51
2022/05/26 03:07:22;;;;;;;3.60;2.20;;;16.20;83.40;;;;;;5014666;28;20409;-53
2022/05/26 03:09:48;;;;;;;4.68;2.35;;;16.10;83.80;;;;;;5015109;28;20034;-53
2022/05/26 03:12:26;;;;;;;4.43;2.00;;;16.10;84.10;;;;;;5015637;28;20042;-53
2022/05/26 03:14:53;;;;;;;4.85;2.28;;;16.00;84.60;;;;;;5014950;28;20037;-53
2022/05/26 03:17:18;;;;;;;2.80;2.10;;;16.00;84.80;;;;;;5014993;28;20088;-49
2022/05/26 03:19:44;;;;;;;3.38;1.98;;;16.00;84.70;;;;;;5015876;28;20046;-55
2022/05/26 03:22:10;;;;;;;4.53;2.10;;;15.90;84.90;;;;;;5019679;28;20077;-52
2022/05/26 03:24:36;;;;;;;3.35;2.10;;;15.80;85.20;;;;;;5019737;28;20092;-54
2022/05/26 03:27:02;;;;;;;4.53;2.50;;;15.90;85.40;;;;;;5017509;28;20421;-51
2022/05/26 03:29:27;;;;;;;4.00;2.13;;;15.80;85.20;;;;;;5016024;28;20081;-55
2022/05/26 03:31:53;;;;;;;4.18;2.15;;;15.90;85.20;;;;;;5015205;28;20053;-52
2022/05/26 03:42:31;;;;;;;2.80;2.10;;;15.80;86.10;;;;;;5014646;28;20018;-51
2022/05/26 03:44:57;;;;;;;8.93;2.42;;;15.80;86.40;;;;;;5007856;28;20273;-54
2022/05/26 03:47:23;;;;;;;2.25;1.90;;;15.80;86.30;;;;;;5014079;28;20034;-53
2022/05/26 03:49:49;;;;;;;3.28;1.90;;;15.80;86.50;;;;;;5015187;28;20045;-52
2022/05/26 03:52:15;;;;;;;4.60;2.15;;;15.80;86.70;;;;;;5014603;28;20125;-52
2022/05/26 03:54:40;;;;;;;3.40;2.00;;;15.70;87.00;;;;;;5014121;28;20668;-52
2022/05/26 03:57:06;;;;;;;3.92;2.47;;;15.70;87.10;;;;;;5014080;28;20034;-52
2022/05/26 03:59:33;;;;;;;2.30;2.00;;;15.70;87.30;;;;;;5014262;28;20026;-51
2022/05/26 04:01:59;;;;;;;4.13;2.30;;;15.60;88.00;;;;;;5013984;28;20516;-50
2022/05/26 04:04:25;;;;;;;2.97;2.25;;;15.60;88.00;;;;;;5013380;28;20551;-54
2022/05/26 04:06:50;;;;;;;5.45;2.30;;;15.80;87.30;;;;;;5013230;28;20038;-51
2022/05/26 04:09:16;;;;;;;6.05;2.42;;;15.70;87.50;;;;;;5014107;28;20040;-50
2022/05/26 04:11:42;;;;;;;4.80;2.10;;;15.70;87.10;;;;;;5014117;28;20117;-51
2022/05/26 04:14:07;;;;;;;4.82;2.20;;;15.70;87.30;;;;;;5014357;28;20060;-50
2022/05/26 04:16:33;;;;;;;2.92;1.90;;;15.70;87.20;;;;;;5013253;28;20112;-52
2022/05/26 04:18:59;;;;;;;3.22;1.90;;;15.70;88.10;;;;;;4995918;28;20050;-49
2022/05/26 04:21:24;;;;;;;4.47;2.20;;;15.80;87.50;;;;;;5013357;28;20038;-49
2022/05/26 04:23:50;;;;;;;5.53;2.20;;;15.70;87.90;;;;;;5013854;28;20157;-55
2022/05/26 04:26:15;;;;;;;3.60;2.10;;;15.80;88.70;;;;;;5013203;28;20129;-55
2022/05/26 04:28:41;;;;;;;2.67;2.20;;;15.80;88.00;;;;;;4996911;28;20041;-55
2022/05/26 04:31:06;;;;;;;2.65;2.00;;;15.70;88.10;;;;;;5013829;28;20037;-52
2022/05/26 04:33:33;;;;;;;2.88;1.90;;;15.70;88.40;;;;;;5013884;28;20029;-53
2022/05/26 04:36:01;;;;;;;5.78;2.08;;;15.80;88.30;;;;;;5013417;28;20029;-52
2022/05/26 04:38:26;;;;;;;10.15;2.42;;;15.80;88.60;;;;;;4996410;28;20034;-50
2022/05/26 04:40:56;;;;;;;3.42;1.80;;;15.80;88.40;;;;;;5013063;28;20041;-54
2022/05/26 04:43:22;;;;;;;7.05;2.25;;;15.90;88.40;;;;;;5014221;28;20087;-55
2022/05/26 04:45:47;;;;;;;3.95;2.30;;;15.90;88.50;;;;;;5012554;28;20045;-50
2022/05/26 04:48:13;;;;;;;3.40;2.10;;;15.90;88.50;;;;;;5013725;28;20071;-52
2022/05/26 04:50:39;;;;;;;2.28;1.95;;;15.80;89.10;;;;;;5012718;28;20034;-50
2022/05/26 04:53:04;;;;;;;3.28;2.20;;;15.80;89.20;;;;;;5013592;28;20049;-51
2022/05/26 04:55:30;;;;;;;3.22;1.90;;;15.90;89.30;;;;;;5012631;28;20041;-55
2022/05/26 04:57:55;;;;;;;4.05;2.30;;;15.90;89.60;;;;;;5013845;28;20060;-55
2022/05/26 05:00:21;;;;;;;3.83;2.15;;;15.90;89.70;;;;;;5013331;28;20042;-50
2022/05/26 05:02:47;;;;;;;3.03;2.15;;;16.00;89.50;;;;;;5013147;28;20386;-53
2022/05/26 05:05:12;;;;;;;2.42;2.20;;;16.00;90.00;;;;;;5012953;28;20501;-51
2022/05/26 05:07:38;;;;;;;3.85;2.00;;;16.00;90.10;;;;;;4995946;28;20100;-53
2022/05/26 05:10:07;;;;;;;2.53;2.10;;;16.00;90.00;;;;;;5012210;28;20066;-51
2022/05/26 05:12:33;;;;;;;5.43;2.55;;;16.10;89.80;;;;;;5004206;28;20120;-54
2022/05/26 05:14:59;;;;;;;4.97;2.15;;;16.00;90.00;;;;;;5013293;28;20072;-52
2022/05/26 05:17:26;;;;;;;4.60;2.13;;;16.20;89.50;;;;;;5001714;28;20022;-52
2022/05/26 05:19:52;;;;;;;3.22;2.10;;;16.20;89.20;;;;;;5013405;28;20022;-50
2022/05/26 05:22:17;;;;;;;4.85;2.10;;;16.20;89.30;;;;;;5013790;28;20022;-53
2022/05/26 05:25:01;;;;;;;4.47;2.03;;;16.10;89.60;;;;;;5013169;28;20033;-51
2022/05/26 05:27:30;;;;;;;6.60;2.13;;;16.20;89.60;;;;;;5012841;28;20041;-57
2022/05/26 05:29:59;;;;;;;5.30;2.65;;;16.40;89.20;;;;;;4994394;28;20025;-53
2022/05/26 05:32:44;;;;;;;4.38;2.30;;;16.40;89.20;;;;;;5013184;28;20034;-53
2022/05/26 05:35:14;;;;;;;2.72;2.17;;;16.40;89.50;;;;;;5012721;28;20030;-54
2022/05/26 05:37:40;;;;;;;3.88;2.10;;;16.40;89.10;;;;;;4995338;28;20033;-55
2022/05/26 05:40:06;;;;;;;3.35;1.92;;;16.40;89.10;;;;;;5012618;28;20021;-56
2022/05/26 05:42:32;;;;;;;3.35;1.85;;;16.50;89.30;;;;;;4996725;28;20477;-54
2022/05/26 05:44:58;;;;;;;3.08;2.20;;;16.50;89.00;;;;;;5012505;28;20034;-59
2022/05/26 05:47:23;;;;;;;3.10;2.33;;;16.50;89.10;;;;;;5011508;28;20029;-55
2022/05/26 05:49:49;;;;;;;4.45;2.10;;;16.40;88.90;;;;;;5012053;28;20112;-53
2022/05/26 05:52:19;;;;;;;4.18;2.92;;;16.50;89.40;;;;;;5012299;28;20495;-52
2022/05/26 05:54:44;;;;;;;2.10;1.90;;;16.60;89.30;;;;;;5012011;28;20034;-55
2022/05/26 05:57:10;;;;;;;3.85;2.00;;;16.40;90.00;;;;;;5010916;28;20497;-53
2022/05/26 05:59:36;;;;;;;5.43;2.30;;;16.50;90.10;;;;;;5012118;28;20033;-58
2022/05/26 06:02:02;;;;;;;2.33;2.08;;;16.40;89.60;;;;;;5012722;28;20041;-56
2022/05/26 06:04:28;;;;;;;2.53;2.05;;;16.50;90.10;;;;;;5012185;28;20045;-55
2022/05/26 06:06:54;;;;;;;5.75;2.40;;;16.60;90.00;;;;;;4994202;28;20037;-55
2022/05/26 06:09:20;;;;;;;3.95;2.20;;;16.70;89.70;;;;;;5012491;28;20104;-52
2022/05/26 06:11:47;;;;;;;4.72;2.30;;;16.80;89.90;;;;;;5012586;28;20568;-53
2022/05/26 06:14:13;;;;;;;5.13;2.25;;;16.90;89.90;;;;;;5011787;28;20037;-55
2022/05/26 06:16:39;;;;;;;5.10;2.40;;;16.90;90.00;;;;;;4992925;28;20045;-57
2022/05/26 06:19:05;;;;;;;4.38;2.30;;;16.80;90.10;;;;;;5011615;28;20120;-54
2022/05/26 06:21:31;;;;;;;4.07;2.20;;;16.80;90.30;;;;;;4994698;28;20065;-55
2022/05/26 06:23:57;;;;;;;4.70;2.40;;;16.80;90.50;;;;;;5012162;28;20397;-56
2022/05/26 06:26:25;;;;;;;3.85;2.55;;;16.80;90.60;;;;;;5011657;28;20042;-54
2022/05/26 06:31:35;;;;;;;3.85;2.40;;;17.00;90.30;;;;;;5003891;28;20042;-53
2022/05/26 06:39:30;;;;;;;4.45;2.45;;;17.20;90.60;;;;;;5013620;28;20042;-52
2022/05/26 06:42:08;;;;;;;3.40;2.40;;;17.40;90.70;;;;;;5012486;28;20485;-55
2022/05/26 06:44:38;;;;;;;2.95;2.55;;;17.20;90.70;;;;;;5011408;28;20057;-53
2022/05/26 06:47:09;;;;;;;3.80;2.63;;;17.10;90.90;;;;;;5008454;28;20445;-54
2022/05/26 06:49:36;;;;;;;7.88;2.40;;;17.20;90.90;;;;;;5007443;28;20413;-51
2022/05/26 06:52:02;;;;;;;6.07;2.65;;;17.20;90.70;;;;;;5014999;28;20105;-53
2022/05/26 06:54:40;;;;;;;11.98;3.42;;;17.40;90.90;;;;;;5016790;28;20046;-56
2022/05/26 06:57:07;;;;;;;5.38;2.33;;;17.50;90.50;;;;;;5014006;28;20036;-55
2022/05/26 06:59:33;;;;;;;5.38;2.40;;;17.30;90.60;;;;;;5012328;28;20509;-57
2022/05/26 07:01:59;;;;;;;3.90;2.45;;;17.30;90.80;;;;;;5012388;28;20042;-55
2022/05/26 07:04:25;;;;;;;3.85;2.55;;;17.50;90.60;;;;;;5011753;28;20461;-51
2022/05/26 07:06:53;;;;;;;3.83;2.22;;;17.50;90.50;;;;;;5011575;28;20080;-54
2022/05/26 07:09:23;;;;;;;6.80;2.70;;;17.40;90.60;;;;;;5011899;28;20057;-55
2022/05/26 07:11:48;;;;;;;2.85;2.22;;;17.60;90.40;;;;;;4994038;28;20359;-53
2022/05/26 07:14:15;;;;;;;3.88;2.58;;;17.50;90.50;;;;;;5011188;28;20026;-53
2022/05/26 07:16:41;;;;;;;5.03;2.50;;;17.50;90.40;;;;;;5010766;28;20377;-55
2022/05/26 07:19:07;;;;;;;6.93;2.97;;;17.70;90.00;;;;;;4993590;28;20117;-56
2022/05/26 07:21:33;;;;;;;4.43;2.47;;;17.70;90.40;;;;;;4994250;28;20447;-55
2022/05/26 07:24:00;;;;;;;4.53;2.53;;;17.60;90.30;;;;;;5011210;28;20050;-50
2022/05/26 07:26:28;;;;;;;7.75;2.55;;;17.60;90.60;;;;;;5011312;28;20045;-55
2022/05/26 07:28:55;;;;;;;4.43;2.50;;;17.70;90.60;;;;;;5014147;28;20397;-55
2022/05/26 07:31:21;;;;;;;4.43;2.35;;;17.80;90.40;;;;;;5002608;28;20464;-55
2022/05/26 07:33:47;;;;;;;4.45;2.50;;;18.10;90.40;;;;;;5014883;28;20091;-54
2022/05/26 07:41:44;;;;;;;3.85;2.65;;;18.20;89.60;;;;;;5014364;28;20029;-57
2022/05/26 07:44:09;;;;;;;5.80;2.78;;;18.30;89.30;;;;;;5015264;28;20030;-54
2022/05/26 07:46:35;;;;;;;5.13;2.70;;;18.50;89.80;;;;;;5014294;28;20444;-55
2022/05/26 07:49:01;;;;;;;3.95;2.80;;;18.30;89.40;;;;;;5015080;28;20037;-54
2022/05/26 07:51:27;;;;;;;5.63;2.65;;;18.30;90.10;;;;;;4996917;28;20084;-56
2022/05/26 07:53:52;;;;;;;7.15;2.80;;;18.20;90.00;;;;;;5014731;28;20044;-52
2022/05/26 07:56:20;;;;;;;7.22;2.83;;;18.30;90.10;;;;;;5014010;28;20028;-55
2022/05/26 07:58:47;;;;;;;3.85;2.60;;;18.40;90.30;;;;;;5012138;28;20586;-56
2022/05/26 08:01:13;;;;;;;5.25;2.85;;;18.10;90.30;;;;;;5012322;28;20034;-55
2022/05/26 08:03:39;;;;;;;5.25;2.50;;;18.10;90.40;;;;;;5013742;28;20037;-49
2022/05/26 08:06:05;;;;;;;4.60;2.60;;;18.20;90.60;;;;;;5014022;28;20025;-55
2022/05/26 08:08:35;;;;;;;5.68;2.60;;;18.00;90.50;;;;;;5015421;28;20104;-55
2022/05/26 08:11:01;;;;;;;5.20;2.60;;;18.00;90.90;;;;;;5014034;28;20061;-55
2022/05/26 08:13:27;;;;;;;4.97;2.83;;;18.10;90.50;;;;;;5013610;28;20046;-54
2022/05/26 08:15:53;;;;;;;3.95;2.50;;;18.00;90.70;;;;;;5012654;28;20486;-50
2022/05/26 08:18:18;;;;;;;7.88;2.80;;;18.00;90.80;;;;;;5008111;28;20116;-54
2022/05/26 08:20:45;;;;;;;5.78;2.78;;;18.10;90.70;;;;;;5015172;28;20393;-55
2022/05/26 08:23:12;;;;;;;4.75;2.65;;;17.90;90.80;;;;;;5015422;28;20081;-57
2022/05/26 08:25:38;;;;;;;6.88;2.80;;;17.80;91.10;;;;;;5014562;28;20117;-54
2022/05/26 08:28:05;;;;;;;5.32;2.90;;;17.80;91.10;;;;;;5008497;28;20030;-49
2022/05/26 08:30:30;;;;;;;7.38;3.47;;;17.80;91.00;;;;;;4995474;28;20103;-55
2022/05/26 08:32:56;;;;;;;4.88;2.55;;;17.70;91.00;;;;;;5013150;28;20049;-50
2022/05/26 08:35:22;;;;;;;5.55;2.78;;;17.60;91.40;;;;;;5012348;28;20074;-59
2022/05/26 08:37:48;;;;;;;3.63;2.95;;;17.80;90.90;;;;;;5011927;28;20026;-54
2022/05/26 08:40:43;;;;;;;4.75;3.00;;;17.90;90.90;;;;;;5013383;28;20025;-52
2022/05/26 08:43:19;;;;;;;;;;;18.00;91.00;;;;;;5004631;28;20067;-56
2022/05/26 08:45:49;;;;;;;4.72;2.70;;;18.20;91.10;;;;;;4995822;28;19913;-53
2022/05/26 08:48:40;;;;;;;6.63;2.95;;;18.30;90.60;;;;;;5013937;28;20060;-55
2022/05/26 08:51:07;;;;;;;4.40;2.50;;;18.40;90.40;;;;;;5013695;28;20037;-56
2022/05/26 08:53:37;;;;;;;3.92;2.60;;;18.30;90.80;;;;;;5012056;28;20034;-53
2022/05/26 08:56:03;;;;;;;4.22;2.50;;;18.40;90.80;;;;;;5012314;28;20111;-52
2022/05/26 08:58:38;;;;;;;5.22;2.50;;;18.50;90.70;;;;;;5013024;28;20032;-52
2022/05/26 09:01:08;;;;;;;4.43;2.78;;;18.40;90.80;;;;;;5013306;28;20030;-57
2022/05/26 09:03:35;;;;;;;5.63;3.20;;;18.40;90.70;;;;;;5013040;28;20068;-57
2022/05/26 09:06:02;;;;;;;2.58;2.22;;;18.30;90.60;;;;;;5012054;28;20042;-55
2022/05/26 09:14:38;;;;;;;5.40;2.97;;;18.10;91.70;;;;;;4979545;28;20053;-57
2022/05/26 09:17:06;;;;;;;3.95;2.53;;;18.30;91.50;;;;;;5012102;28;20060;-54
2022/05/26 09:19:42;;;;;;;5.70;2.90;;;18.10;91.40;;;;;;4996751;28;20512;-53
2022/05/26 09:22:26;;;;;;;4.45;2.92;;;17.90;91.50;;;;;;5013500;28;20034;-53
2022/05/26 09:24:52;;;;;;;4.57;2.35;;;17.90;91.70;;;;;;5013081;28;20507;-54
2022/05/26 09:27:36;;;;;;;5.18;3.03;;;17.80;92.00;;;;;;5012182;28;20030;-56
2022/05/26 09:30:19;;;;;;;3.85;2.97;;;17.90;92.00;;;;;;5012755;28;20034;-56
2022/05/26 09:32:45;;;;;;;3.50;2.90;;;17.70;92.10;;;;;;4995664;28;20038;-56
2022/05/26 09:35:22;;;;;;;4.00;2.80;;;17.50;93.70;;;;;;5005454;28;20042;-53
2022/05/26 09:37:54;;;;;;;5.53;2.70;;;17.10;95.00;;;;;;5009842;28;20392;-55
2022/05/26 09:40:31;;;;;;;6.00;3.60;;;16.90;95.90;;;;;;5008617;28;20037;-55
2022/05/26 09:43:17;;;;;;;6.20;3.22;;;16.80;96.60;;;;;;5012386;28;20108;-55
2022/05/26 09:45:53;;;;;;;5.03;4.00;;;16.70;97.70;;;;;;5009650;28;20026;-53
2022/05/26 09:48:29;;;;;;;4.45;3.25;;;16.90;96.90;;;;;;5003604;28;20401;-54
2022/05/26 09:51:13;;;;;;;6.70;3.60;;;17.00;96.50;;;;;;5012959;28;20029;-55
2022/05/26 09:53:42;;;;;;;5.53;3.13;;;17.10;96.90;;;;;;5012107;28;20030;-55
2022/05/26 09:56:12;;;;;;;5.00;3.22;;;17.40;95.90;;;;;;5012022;28;20129;-54
2022/05/26 09:58:43;;;;;;;5.85;3.58;;;17.50;95.40;;;;;;5011567;28;20030;-51
2022/05/26 10:01:20;;;;;;;6.18;3.75;;;17.70;95.10;;;;;;5009420;28;20034;-55
2022/05/26 10:04:08;;;;;;;3.88;3.30;;;17.80;94.70;;;;;;5012980;28;20178;-53
2022/05/26 10:06:40;;;;;;;5.95;3.53;;;18.00;93.90;;;;;;5011752;28;20026;-56
2022/05/26 10:09:14;;;;;;;6.35;3.70;;;18.10;94.10;;;;;;5008733;28;20025;-53
2022/05/26 10:12:08;;;;;;;6.63;4.00;;;18.30;93.40;;;;;;5010223;28;20042;-56
2022/05/26 10:14:51;;;;;;;6.57;4.13;;;18.40;93.50;;;;;;5009232;28;20033;-53
2022/05/26 10:17:34;;;;;;;4.70;2.90;;;18.60;93.50;;;;;;5008065;28;20022;-52
2022/05/26 10:20:45;;;;;;;7.23;4.03;;;18.80;93.50;;;;;;5010970;28;20068;-54
2022/05/26 10:23:44;;;;;;;6.28;4.25;;;18.80;92.70;;;;;;4952195;28;20043;-56
2022/05/26 10:26:27;;;;;;;5.43;3.72;;;18.70;92.10;;;;;;5008014;28;20091;-51
2022/05/26 10:29:08;;;;;;;7.40;4.35;;;19.00;91.80;;;;;;5009615;28;20041;-50
2022/05/26 10:32:01;;;;;;;6.25;3.90;;;19.10;91.40;;;;;;5007492;28;20114;-56
2022/05/26 10:34:57;;;;;;;4.85;3.80;;;19.20;91.30;;;;;;5008408;28;20038;-57
2022/05/26 10:37:34;;;;;;;6.10;4.00;;;19.40;91.20;;;;;;5010749;28;20030;-54
2022/05/26 10:40:21;;;;;;;6.03;3.90;;;19.60;90.90;;;;;;5010868;28;20072;-56
2022/05/26 10:42:56;;;;;;;6.30;3.95;;;19.60;90.30;;;;;;5001364;28;20031;-57
2022/05/26 10:45:33;;;;;;;5.55;3.88;;;19.50;90.30;;;;;;4992921;28;20029;-55
2022/05/26 10:48:29;;;;;;;7.93;4.50;;;19.30;90.60;;;;;;4991887;28;20029;-58
2022/05/26 10:51:16;;;;;;;5.50;4.20;;;19.30;90.80;;;;;;5015146;28;20506;-55
2022/05/26 10:53:50;;;;;;;5.65;3.88;;;19.50;90.30;;;;;;5012259;28;20061;-52
2022/05/26 10:56:21;;;;;;;;;;;19.60;90.00;;;;;;5016841;28;20094;-52
2022/05/26 10:58:54;;;;;;;6.40;4.22;;;20.10;90.20;;;;;;5010527;28;19909;-52
2022/05/26 11:01:25;;;;;;;6.60;4.00;;;20.20;88.00;;;;;;5014065;28;20024;-54
2022/05/26 11:03:56;;;;;;;6.07;3.97;;;20.10;87.30;;;;;;5016328;28;20033;-56
2022/05/26 11:06:30;;;;;;;6.30;4.55;;;20.30;86.90;;;;;;5014283;28;20107;-53
2022/05/26 11:09:08;;;;;;;5.43;4.18;;;20.20;87.30;;;;;;5015829;28;20048;-55
2022/05/26 11:11:41;;;;;;;6.88;4.47;;;19.90;88.40;;;;;;5016506;28;20033;-56
2022/05/26 11:17:34;;;;;;;4.38;3.63;;;20.30;88.10;;;;;;5014345;28;20022;-53
2022/05/26 11:20:08;;;;;;;4.50;3.45;;;20.30;86.90;;;;;;5014294;28;20398;-54
2022/05/26 11:22:34;;;;;;;5.13;4.00;;;20.20;86.70;;;;;;5015963;28;20060;-57
2022/05/26 11:25:00;;;;;;;5.97;3.83;;;20.20;86.90;;;;;;5015691;28;20128;-56
2022/05/26 11:27:46;;;;;;;5.78;4.10;;;19.90;87.10;;;;;;5013210;28;20033;-56
2022/05/26 11:36:08;;;;;;;6.80;3.83;;;20.20;85.60;;;;;;5011920;28;20065;-54
2022/05/26 11:38:45;;;;;;;5.95;3.50;;;20.20;86.10;;;;;;4997527;28;20124;-53
2022/05/26 11:41:33;;;;;;;5.53;4.20;;;20.10;85.40;;;;;;4997858;28;20030;-55
2022/05/26 11:44:05;;;;;;;5.18;3.90;;;19.80;86.70;;;;;;5012697;28;20030;-50
2022/05/26 11:46:44;;;;;;;6.75;4.47;;;19.70;87.50;;;;;;5015088;28;20038;-52
2022/05/26 11:49:11;;;;;;;6.40;4.32;;;19.90;87.60;;;;;;4998207;28;20033;-51
2022/05/26 11:51:39;;;;;;;5.80;4.30;;;20.10;87.10;;;;;;5015390;28;20026;-50
2022/05/26 11:54:10;;;;;;;6.13;4.55;;;20.20;87.00;;;;;;5015336;28;20036;-51
2022/05/26 11:56:43;;;;;;;4.97;3.95;;;20.20;87.30;;;;;;5014522;28;20505;-55
2022/05/26 11:59:32;;;;;;;7.15;4.22;;;20.30;87.50;;;;;;5014786;28;20409;-52
2022/05/26 12:02:00;;;;;;;7.45;4.15;;;20.40;88.00;;;;;;5012608;28;20414;-52
2022/05/26 12:04:32;;;;;;;5.50;4.32;;;20.50;87.90;;;;;;5013982;28;20037;-53
2022/05/26 12:07:00;;;;;;;4.43;4.00;;;20.60;87.60;;;;;;5009859;28;20156;-51
2022/05/26 12:09:31;;;;;;;7.97;4.32;;;20.60;86.20;;;;;;5009129;28;20505;-55
2022/05/26 12:12:17;;;;;;;4.80;4.10;;;20.40;86.80;;;;;;5014482;28;20109;-52
2022/05/26 12:14:54;;;;;;;5.80;4.57;;;20.30;86.30;;;;;;5007204;28;20041;-54
2022/05/26 12:17:45;;;;;;;9.63;4.68;;;20.30;86.50;;;;;;5015002;28;20041;-53
2022/05/26 12:20:10;;;;;;;6.90;5.28;;;20.50;87.20;;;;;;4999633;28;20109;-56
2022/05/26 12:22:37;;;;;;;7.05;4.68;;;20.70;88.20;;;;;;5015009;28;20060;-52
2022/05/26 12:25:21;;;;;;;6.40;4.97;;;21.10;87.60;;;;;;5014944;28;20034;-54
2022/05/26 12:28:01;;;;;;;5.80;3.95;;;21.10;87.50;;;;;;5011946;28;20279;-50
2022/05/26 12:30:39;;;;;;;6.65;4.43;;;21.00;86.80;;;;;;5011831;28;20045;-56
2022/05/26 12:33:19;;;;;;;5.97;4.10;;;21.00;87.60;;;;;;5011739;28;20030;-54
2022/05/26 12:36:00;;;;;;;6.28;3.80;;;21.30;86.40;;;;;;5010829;28;20143;-53
2022/05/26 12:39:16;;;;;;;6.07;3.80;;;21.30;85.70;;;;;;5013943;28;20029;-53
2022/05/26 12:42:17;;;;;;;4.70;3.95;;;21.10;87.30;;;;;;4973091;28;20067;-52
2022/05/26 12:45:14;;;;;;;9.50;4.45;;;21.30;87.30;;;;;;4994861;28;20161;-55
2022/05/26 12:48:10;;;;;;;5.18;3.80;;;21.40;86.40;;;;;;5005490;28;20112;-52
2022/05/26 12:50:42;;;;;;;5.30;4.18;;;21.30;86.70;;;;;;5014430;28;20091;-55
2022/05/26 12:53:26;;;;;;;5.05;3.63;;;21.50;85.80;;;;;;5013925;28;20104;-54
2022/05/26 12:56:13;;;;;;;5.50;3.53;;;21.50;86.00;;;;;;4997028;28;20037;-53
2022/05/26 12:58:52;;;;;;;4.82;3.58;;;21.40;84.90;;;;;;5014592;28;20339;-53
2022/05/26 13:01:23;;;;;;;4.72;3.63;;;21.50;85.20;;;;;;5013592;28;20049;-53
2022/05/26 13:04:05;;;;;;;4.93;3.13;;;21.50;83.80;;;;;;4995282;28;20073;-55
2022/05/26 13:06:41;;;;;;;4.45;3.28;;;21.50;85.20;;;;;;4995840;28;20556;-57
2022/05/26 13:09:16;;;;;;;4.70;3.45;;;21.50;86.10;;;;;;5011909;28;20030;-56
2022/05/26 13:12:03;;;;;;;4.00;3.10;;;21.10;85.40;;;;;;4995527;28;20033;-56
2022/05/26 13:14:46;;;;;;;5.18;3.30;;;20.70;87.90;;;;;;5012329;28;20444;-55
2022/05/26 13:17:16;;;;;;;4.53;3.17;;;20.80;87.10;;;;;;5000774;28;20034;-58
2022/05/26 13:19:48;;;;;;;5.07;3.40;;;20.80;86.80;;;;;;5013887;28;20481;-55
2022/05/26 13:22:30;;;;;;;3.67;2.92;;;20.60;88.20;;;;;;4995288;28;20524;-55
2022/05/26 13:25:00;;;;;;;4.30;3.90;;;20.50;89.20;;;;;;4995075;28;20034;-57
2022/05/26 13:27:45;;;;;;;7.38;3.85;;;20.40;87.20;;;;;;4995022;28;20030;-54
2022/05/26 13:33:07;;;;;;;5.00;4.50;;;20.60;83.00;;;;;;5012762;28;20053;-56
2022/05/26 13:35:40;;;;;;;6.68;4.55;;;20.70;82.50;;;;;;5013278;28;20313;-57
2022/05/26 13:41:12;;;;;;;6.40;4.47;;;21.40;74.10;;;;;;5012901;28;20033;-56
2022/05/26 13:43:42;;;;;;;6.32;4.30;;;21.40;72.90;;;;;;5013241;28;20484;-55
2022/05/26 13:46:09;;;;;;;5.80;4.35;;;21.20;74.70;;;;;;5012492;28;20026;-57
2022/05/26 13:48:36;;;;;;;8.13;4.60;;;21.70;74.70;;;;;;5013185;28;20265;-55
2022/05/26 13:51:08;;;;;;;6.72;5.00;;;22.10;75.30;;;;;;5012898;28;20298;-56
2022/05/26 13:53:48;;;;;;;7.20;5.00;;;22.20;75.00;;;;;;5012574;28;20037;-53
2022/05/26 13:56:28;;;;;;;7.50;4.63;;;22.10;74.90;;;;;;5013407;28;20042;-51
2022/05/26 13:58:57;;;;;;;8.68;4.65;;;21.70;76.40;;;;;;5010491;28;20041;-57